Main page
METAR-TAF:

METAR-TAF

Airports :

Andorra–La Seu d'Urgell Airport

La Seu d'Urgell, Spain

latitude: 42-20-29N, longitude: 001-24-17E, elevation: 802 m

Current weather observation

The report was made 14 hours and 41 minutes ago, at 17:00 UTC
Wind 21 kt from the Northwest, varying between West/Northwest and North
Temperature 20°C
Humidity 15%
Pressure 1013 hPa
Visibility 10 km or more
Few clouds at a height of 6000 ft

METAR: LESU 201700Z 31021KT 290V350 9999 FEW060 20/M07 Q1013

Time: 09:41 (07:41 UTC)

Forecast

The report was made 5 hours and 41 minutes ago, at 02:00 UTC
Forecast valid from 21 at 03 UTC to 22 at 03 UTC
Wind 3 kt from variable directions
Visibility 10 km or more
Few clouds at a height of 4000 ft
Becoming
from 21 at 11 UTC to 21 at 13 UTC
Wind 15 kt from the West/Northwest
Becoming
from 21 at 18 UTC to 21 at 20 UTC
Wind 3 kt from variable directions

TAF: LESU 210200Z 2103/2203 VRB03KT 9999 FEW040 TX22/2114Z TN02/2104Z BECMG 2111/2113 30015KT BECMG 2118/2120 VRB03KT

Weather observations and forecasts of more than 4000 airports (METAR and TAF reports).

The available stations are represented by yellow and red dots on the map.

Hover mouse over dot to see the name of the station.

Then click to see weather observations and forecasts.

To change the map : click on the green buttons with a black cross to zoom in, on the green button with a dash to zoom out, or on the green arrows for adjacent maps.


METAR-TAF: